sensor_id;sensor_type;location;lat;lon;timestamp;temperature;humidity
10662;DHT22;5379;51.034;7.006;2024-01-27T00:00:35;6.80;99.90
10662;DHT22;5379;51.034;7.006;2024-01-27T00:03:02;6.70;99.90
10662;DHT22;5379;51.034;7.006;2024-01-27T00:05:30;6.60;99.90
10662;DHT22;5379;51.034;7.006;2024-01-27T00:07:57;6.60;99.90
10662;DHT22;5379;51.034;7.006;2024-01-27T00:12:51;6.70;99.90
10662;DHT22;5379;51.034;7.006;2024-01-27T00:15:18;6.60;99.90
10662;DHT22;5379;51.034;7.006;2024-01-27T00:17:45;6.50;99.90
10662;DHT22;5379;51.034;7.006;2024-01-27T00:20:12;6.50;99.90
10662;DHT22;5379;51.034;7.006;2024-01-27T00:22:40;6.50;99.90
10662;DHT22;5379;51.034;7.006;2024-01-27T00:25:07;6.40;99.90
10662;DHT22;5379;51.034;7.006;2024-01-27T00:27:33;6.30;99.90
10662;DHT22;5379;51.034;7.006;2024-01-27T00:32:27;6.20;99.90
10662;DHT22;5379;51.034;7.006;2024-01-27T00:34:57;6.20;99.90
10662;DHT22;5379;51.034;7.006;2024-01-27T00:37:23;6.40;99.90
10662;DHT22;5379;51.034;7.006;2024-01-27T00:39:52;6.50;99.90
10662;DHT22;5379;51.034;7.006;2024-01-27T00:44:49;6.10;99.90
10662;DHT22;5379;51.034;7.006;2024-01-27T00:47:16;5.90;99.90
10662;DHT22;5379;51.034;7.006;2024-01-27T00:52:10;5.70;99.90
10662;DHT22;5379;51.034;7.006;2024-01-27T00:54:37;5.60;99.90
10662;DHT22;5379;51.034;7.006;2024-01-27T00:57:05;5.50;99.90
10662;DHT22;5379;51.034;7.006;2024-01-27T05:32:41;3.60;99.90
10662;DHT22;5379;51.034;7.006;2024-01-27T05:35:08;3.40;99.90
10662;DHT22;5379;51.034;7.006;2024-01-27T05:37:36;3.30;99.90
10662;DHT22;5379;51.034;7.006;2024-01-27T05:40:05;3.30;99.90
10662;DHT22;5379;51.034;7.006;2024-01-27T05:42:32;3.30;99.90
10662;DHT22;5379;51.034;7.006;2024-01-27T05:44:59;3.20;99.90
10662;DHT22;5379;51.034;7.006;2024-01-27T05:47:26;3.10;99.90
10662;DHT22;5379;51.034;7.006;2024-01-27T05:49:54;3.10;99.90
10662;DHT22;5379;51.034;7.006;2024-01-27T05:52:20;3.10;99.90
10662;DHT22;5379;51.034;7.006;2024-01-27T05:54:47;3.00;99.90
10662;DHT22;5379;51.034;7.006;2024-01-27T05:57:14;3.10;99.90
10662;DHT22;5379;51.034;7.006;2024-01-27T05:59:41;3.10;99.90
10662;DHT22;5379;51.034;7.006;2024-01-27T06:02:07;3.40;99.90
10662;DHT22;5379;51.034;7.006;2024-01-27T06:04:34;3.50;99.90
10662;DHT22;5379;51.034;7.006;2024-01-27T06:07:02;3.50;99.90
10662;DHT22;5379;51.034;7.006;2024-01-27T06:09:29;3.50;99.90
10662;DHT22;5379;51.034;7.006;2024-01-27T06:14:25;3.40;99.90
10662;DHT22;5379;51.034;7.006;2024-01-27T06:16:52;3.40;99.90
10662;DHT22;5379;51.034;7.006;2024-01-27T06:19:18;3.40;99.90
10662;DHT22;5379;51.034;7.006;2024-01-27T06:21:45;3.30;99.90
10662;DHT22;5379;51.034;7.006;2024-01-27T06:24:13;3.30;99.90
10662;DHT22;5379;51.034;7.006;2024-01-27T06:26:40;3.00;99.90
10662;DHT22;5379;51.034;7.006;2024-01-27T06:29:07;3.00;99.90
10662;DHT22;5379;51.034;7.006;2024-01-27T06:31:34;3.00;99.90
10662;DHT22;5379;51.034;7.006;2024-01-27T06:34:00;3.30;99.90
10662;DHT22;5379;51.034;7.006;2024-01-27T06:36:27;3.30;99.90
10662;DHT22;5379;51.034;7.006;2024-01-27T06:38:54;3.30;99.90
10662;DHT22;5379;51.034;7.006;2024-01-27T06:41:22;3.20;99.90
10662;DHT22;5379;51.034;7.006;2024-01-27T06:43:49;2.90;99.90
10662;DHT22;5379;51.034;7.006;2024-01-27T06:46:15;3.10;99.90
10662;DHT22;5379;51.034;7.006;2024-01-27T06:48:42;3.10;99.90
10662;DHT22;5379;51.034;7.006;2024-01-27T06:51:09;3.30;99.90
10662;DHT22;5379;51.034;7.006;2024-01-27T06:53:36;3.50;99.90
10662;DHT22;5379;51.034;7.006;2024-01-27T06:56:03;3.30;99.90
10662;DHT22;5379;51.034;7.006;2024-01-27T06:58:31;3.30;99.90
10662;DHT22;5379;51.034;7.006;2024-01-27T07:00:58;3.40;99.90
10662;DHT22;5379;51.034;7.006;2024-01-27T07:03:24;3.30;99.90
10662;DHT22;5379;51.034;7.006;2024-01-27T07:05:51;3.30;99.90
10662;DHT22;5379;51.034;7.006;2024-01-27T07:08:18;3.30;99.90
10662;DHT22;5379;51.034;7.006;2024-01-27T07:10:45;3.40;99.90
10662;DHT22;5379;51.034;7.006;2024-01-27T07:13:11;3.40;99.90
10662;DHT22;5379;51.034;7.006;2024-01-27T07:15:40;3.50;99.90
10662;DHT22;5379;51.034;7.006;2024-01-27T07:18:06;3.50;99.90
10662;DHT22;5379;51.034;7.006;2024-01-27T07:20:34;3.50;99.90
10662;DHT22;5379;51.034;7.006;2024-01-27T07:23:01;3.30;99.90
10662;DHT22;5379;51.034;7.006;2024-01-27T07:25:28;3.10;99.90
10662;DHT22;5379;51.034;7.006;2024-01-27T07:27:55;3.20;99.90
10662;DHT22;5379;51.034;7.006;2024-01-27T07:30:22;3.20;99.90
10662;DHT22;5379;51.034;7.006;2024-01-27T07:32:50;3.20;99.90
10662;DHT22;5379;51.034;7.006;2024-01-27T07:35:17;3.40;99.90
10662;DHT22;5379;51.034;7.006;2024-01-27T07:37:43;3.50;99.90
10662;DHT22;5379;51.034;7.006;2024-01-27T07:40:11;3.70;99.90
10662;DHT22;5379;51.034;7.006;2024-01-27T07:42:38;3.70;99.90
10662;DHT22;5379;51.034;7.006;2024-01-27T07:45:06;3.70;99.90
10662;DHT22;5379;51.034;7.006;2024-01-27T07:50:02;3.60;99.90
10662;DHT22;5379;51.034;7.006;2024-01-27T07:52:30;3.60;99.90
10662;DHT22;5379;51.034;7.006;2024-01-27T07:54:57;3.80;99.90
10662;DHT22;5379;51.034;7.006;2024-01-27T07:57:24;3.90;99.90
10662;DHT22;5379;51.034;7.006;2024-01-27T07:59:51;3.90;99.90
10662;DHT22;5379;51.034;7.006;2024-01-27T08:02:18;4.00;99.90
10662;DHT22;5379;51.034;7.006;2024-01-27T08:04:44;4.00;99.90
10662;DHT22;5379;51.034;7.006;2024-01-27T08:07:13;3.90;99.90
10662;DHT22;5379;51.034;7.006;2024-01-27T08:09:42;4.00;99.90
10662;DHT22;5379;51.034;7.006;2024-01-27T08:12:09;4.00;99.90
10662;DHT22;5379;51.034;7.006;2024-01-27T08:14:36;4.00;99.90
10662;DHT22;5379;51.034;7.006;2024-01-27T08:17:03;4.10;99.90
10662;DHT22;5379;51.034;7.006;2024-01-27T08:19:31;4.10;99.90
10662;DHT22;5379;51.034;7.006;2024-01-27T08:21:58;4.10;99.90
10662;DHT22;5379;51.034;7.006;2024-01-27T08:24:26;4.20;99.90
10662;DHT22;5379;51.034;7.006;2024-01-27T08:26:53;4.20;99.90
10662;DHT22;5379;51.034;7.006;2024-01-27T08:29:19;4.20;99.90
10662;DHT22;5379;51.034;7.006;2024-01-27T08:31:45;4.30;99.90
10662;DHT22;5379;51.034;7.006;2024-01-27T08:34:12;4.40;99.90
10662;DHT22;5379;51.034;7.006;2024-01-27T08:36:39;4.40;99.90
10662;DHT22;5379;51.034;7.006;2024-01-27T08:39:06;4.50;99.90
10662;DHT22;5379;51.034;7.006;2024-01-27T08:41:35;4.50;99.90
10662;DHT22;5379;51.034;7.006;2024-01-27T08:44:02;4.40;99.90
10662;DHT22;5379;51.034;7.006;2024-01-27T08:46:29;4.30;99.90
10662;DHT22;5379;51.034;7.006;2024-01-27T08:48:56;4.30;99.90
10662;DHT22;5379;51.034;7.006;2024-01-27T08:51:22;4.30;99.90
10662;DHT22;5379;51.034;7.006;2024-01-27T08:53:48;4.40;99.90
10662;DHT22;5379;51.034;7.006;2024-01-27T08:56:15;4.50;99.90
10662;DHT22;5379;51.034;7.006;2024-01-27T08:58:44;4.90;99.90
10662;DHT22;5379;51.034;7.006;2024-01-27T09:01:13;4.80;99.90
10662;DHT22;5379;51.034;7.006;2024-01-27T09:03:42;5.00;99.90
10662;DHT22;5379;51.034;7.006;2024-01-27T09:06:09;5.10;99.90
10662;DHT22;5379;51.034;7.006;2024-01-27T09:08:36;5.10;99.90
10662;DHT22;5379;51.034;7.006;2024-01-27T09:11:03;5.20;99.90
10662;DHT22;5379;51.034;7.006;2024-01-27T09:13:30;5.40;99.90
10662;DHT22;5379;51.034;7.006;2024-01-27T09:15:58;5.60;99.90
10662;DHT22;5379;51.034;7.006;2024-01-27T09:20:53;5.70;99.90
10662;DHT22;5379;51.034;7.006;2024-01-27T09:23:19;6.00;99.90
10662;DHT22;5379;51.034;7.006;2024-01-27T09:25:46;5.90;99.90
10662;DHT22;5379;51.034;7.006;2024-01-27T09:28:13;5.90;99.90
10662;DHT22;5379;51.034;7.006;2024-01-27T09:30:41;5.90;99.90
10662;DHT22;5379;51.034;7.006;2024-01-27T09:33:09;5.90;99.90
10662;DHT22;5379;51.034;7.006;2024-01-27T09:35:36;5.90;99.90
10662;DHT22;5379;51.034;7.006;2024-01-27T09:38:03;6.00;99.90
10662;DHT22;5379;51.034;7.006;2024-01-27T09:40:30;6.40;99.90
10662;DHT22;5379;51.034;7.006;2024-01-27T09:42:59;6.40;99.90
10662;DHT22;5379;51.034;7.006;2024-01-27T09:45:26;6.60;99.90
10662;DHT22;5379;51.034;7.006;2024-01-27T09:47:54;6.60;99.90
10662;DHT22;5379;51.034;7.006;2024-01-27T09:50:24;6.50;99.90
10662;DHT22;5379;51.034;7.006;2024-01-27T09:52:51;6.50;99.90
10662;DHT22;5379;51.034;7.006;2024-01-27T09:55:18;6.40;99.90
10662;DHT22;5379;51.034;7.006;2024-01-27T09:57:45;6.50;99.90
10662;DHT22;5379;51.034;7.006;2024-01-27T10:00:13;6.40;99.90
10662;DHT22;5379;51.034;7.006;2024-01-27T10:02:42;6.40;99.90
10662;DHT22;5379;51.034;7.006;2024-01-27T10:05:09;6.60;99.90
10662;DHT22;5379;51.034;7.006;2024-01-27T10:07:39;6.60;99.90
10662;DHT22;5379;51.034;7.006;2024-01-27T10:10:07;6.60;99.90
10662;DHT22;5379;51.034;7.006;2024-01-27T10:12:39;6.60;99.90
10662;DHT22;5379;51.034;7.006;2024-01-27T10:15:17;6.70;99.90
10662;DHT22;5379;51.034;7.006;2024-01-27T10:20:14;6.90;99.90
10662;DHT22;5379;51.034;7.006;2024-01-27T10:22:45;6.90;99.90
10662;DHT22;5379;51.034;7.006;2024-01-27T10:25:15;6.90;99.90
10662;DHT22;5379;51.034;7.006;2024-01-27T10:27:43;6.90;99.90
10662;DHT22;5379;51.034;7.006;2024-01-27T10:30:15;7.10;99.90
10662;DHT22;5379;51.034;7.006;2024-01-27T10:32:43;7.10;99.90
10662;DHT22;5379;51.034;7.006;2024-01-27T10:35:10;7.00;99.90
10662;DHT22;5379;51.034;7.006;2024-01-27T10:37:37;7.20;99.90
10662;DHT22;5379;51.034;7.006;2024-01-27T10:40:07;7.30;99.90
10662;DHT22;5379;51.034;7.006;2024-01-27T10:45:03;7.30;99.90
10662;DHT22;5379;51.034;7.006;2024-01-27T10:47:31;7.40;99.90
10662;DHT22;5379;51.034;7.006;2024-01-27T10:49:59;7.60;99.90
10662;DHT22;5379;51.034;7.006;2024-01-27T10:52:29;7.50;99.90
10662;DHT22;5379;51.034;7.006;2024-01-27T10:54:58;7.70;99.90
10662;DHT22;5379;51.034;7.006;2024-01-27T10:57:29;7.80;99.90
10662;DHT22;5379;51.034;7.006;2024-01-27T10:59:57;7.90;99.90
10662;DHT22;5379;51.034;7.006;2024-01-27T11:02:24;7.80;99.90
10662;DHT22;5379;51.034;7.006;2024-01-27T11:04:51;7.90;99.90
10662;DHT22;5379;51.034;7.006;2024-01-27T11:07:20;8.00;99.90
10662;DHT22;5379;51.034;7.006;2024-01-27T11:09:49;7.90;99.90
10662;DHT22;5379;51.034;7.006;2024-01-27T11:12:18;7.90;99.90
10662;DHT22;5379;51.034;7.006;2024-01-27T11:14:47;7.90;99.90
10662;DHT22;5379;51.034;7.006;2024-01-27T11:17:14;8.00;99.90
10662;DHT22;5379;51.034;7.006;2024-01-27T11:19:42;8.10;99.90
10662;DHT22;5379;51.034;7.006;2024-01-27T11:22:23;8.10;99.90
10662;DHT22;5379;51.034;7.006;2024-01-27T11:24:51;8.30;99.90
10662;DHT22;5379;51.034;7.006;2024-01-27T11:27:18;8.20;99.90
10662;DHT22;5379;51.034;7.006;2024-01-27T11:29:48;8.30;99.90
10662;DHT22;5379;51.034;7.006;2024-01-27T11:34:43;8.40;99.90
10662;DHT22;5379;51.034;7.006;2024-01-27T11:37:12;8.30;99.90
10662;DHT22;5379;51.034;7.006;2024-01-27T11:39:38;8.40;99.90
10662;DHT22;5379;51.034;7.006;2024-01-27T11:42:06;8.50;99.90
10662;DHT22;5379;51.034;7.006;2024-01-27T11:44:34;8.60;99.90
10662;DHT22;5379;51.034;7.006;2024-01-27T11:47:03;8.60;99.90
10662;DHT22;5379;51.034;7.006;2024-01-27T11:49:30;8.60;99.90
10662;DHT22;5379;51.034;7.006;2024-01-27T11:51:57;8.70;99.90
10662;DHT22;5379;51.034;7.006;2024-01-27T11:54:23;8.80;99.90
10662;DHT22;5379;51.034;7.006;2024-01-27T11:56:50;8.90;99.90
10662;DHT22;5379;51.034;7.006;2024-01-27T11:59:17;8.80;99.90
10662;DHT22;5379;51.034;7.006;2024-01-27T12:01:44;8.90;99.90
10662;DHT22;5379;51.034;7.006;2024-01-27T12:04:13;9.00;99.90
10662;DHT22;5379;51.034;7.006;2024-01-27T12:06:40;8.80;99.90
10662;DHT22;5379;51.034;7.006;2024-01-27T12:09:07;8.80;99.90
10662;DHT22;5379;51.034;7.006;2024-01-27T12:11:38;9.00;99.90
10662;DHT22;5379;51.034;7.006;2024-01-27T12:14:05;9.00;99.90
10662;DHT22;5379;51.034;7.006;2024-01-27T12:16:32;9.10;99.90
10662;DHT22;5379;51.034;7.006;2024-01-27T12:18:59;9.10;99.90
10662;DHT22;5379;51.034;7.006;2024-01-27T12:21:27;9.20;99.90
10662;DHT22;5379;51.034;7.006;2024-01-27T12:23:56;9.20;99.90
10662;DHT22;5379;51.034;7.006;2024-01-27T12:26:24;9.30;99.90
10662;DHT22;5379;51.034;7.006;2024-01-27T12:28:51;9.30;99.90
10662;DHT22;5379;51.034;7.006;2024-01-27T12:31:18;9.40;99.90
10662;DHT22;5379;51.034;7.006;2024-01-27T12:33:49;9.50;99.90
10662;DHT22;5379;51.034;7.006;2024-01-27T12:36:17;9.70;99.90
10662;DHT22;5379;51.034;7.006;2024-01-27T12:38:52;9.60;99.90
10662;DHT22;5379;51.034;7.006;2024-01-27T12:41:19;9.30;99.90
10662;DHT22;5379;51.034;7.006;2024-01-27T12:43:46;9.20;99.90
10662;DHT22;5379;51.034;7.006;2024-01-27T12:46:13;9.20;99.90
10662;DHT22;5379;51.034;7.006;2024-01-27T12:48:40;9.20;99.90
10662;DHT22;5379;51.034;7.006;2024-01-27T12:51:07;9.20;99.90
10662;DHT22;5379;51.034;7.006;2024-01-27T12:53:34;9.20;99.90
10662;DHT22;5379;51.034;7.006;2024-01-27T12:56:03;9.20;99.90
10662;DHT22;5379;51.034;7.006;2024-01-27T12:58:30;9.10;99.90
10662;DHT22;5379;51.034;7.006;2024-01-27T13:00:57;9.20;99.90
10662;DHT22;5379;51.034;7.006;2024-01-27T13:03:23;9.20;99.90
10662;DHT22;5379;51.034;7.006;2024-01-27T13:05:50;9.40;99.90
10662;DHT22;5379;51.034;7.006;2024-01-27T13:08:17;9.30;99.90
10662;DHT22;5379;51.034;7.006;2024-01-27T13:10:44;9.30;99.90
10662;DHT22;5379;51.034;7.006;2024-01-27T13:13:12;9.10;99.90
10662;DHT22;5379;51.034;7.006;2024-01-27T13:15:39;9.20;99.90
10662;DHT22;5379;51.034;7.006;2024-01-27T13:18:06;9.10;99.90
10662;DHT22;5379;51.034;7.006;2024-01-27T13:20:32;9.10;99.90
10662;DHT22;5379;51.034;7.006;2024-01-27T13:22:59;9.10;99.90
10662;DHT22;5379;51.034;7.006;2024-01-27T13:25:26;9.20;99.90
10662;DHT22;5379;51.034;7.006;2024-01-27T13:27:53;9.20;99.90
10662;DHT22;5379;51.034;7.006;2024-01-27T13:30:22;9.20;99.90
10662;DHT22;5379;51.034;7.006;2024-01-27T13:32:49;9.20;99.90
10662;DHT22;5379;51.034;7.006;2024-01-27T13:35:16;9.40;99.90
10662;DHT22;5379;51.034;7.006;2024-01-27T13:37:43;9.50;99.90
10662;DHT22;5379;51.034;7.006;2024-01-27T13:42:38;9.30;99.90
10662;DHT22;5379;51.034;7.006;2024-01-27T13:45:06;9.10;99.90
10662;DHT22;5379;51.034;7.006;2024-01-27T13:47:35;9.20;99.90
10662;DHT22;5379;51.034;7.006;2024-01-27T13:50:03;9.30;99.90
10662;DHT22;5379;51.034;7.006;2024-01-27T13:52:30;9.40;99.90
10662;DHT22;5379;51.034;7.006;2024-01-27T13:54:56;9.40;99.90
10662;DHT22;5379;51.034;7.006;2024-01-27T13:57:23;9.50;99.90
10662;DHT22;5379;51.034;7.006;2024-01-27T13:59:50;9.60;99.90
10662;DHT22;5379;51.034;7.006;2024-01-27T14:02:17;9.50;99.90
10662;DHT22;5379;51.034;7.006;2024-01-27T14:04:45;9.60;99.90
10662;DHT22;5379;51.034;7.006;2024-01-27T14:07:12;9.60;99.90
10662;DHT22;5379;51.034;7.006;2024-01-27T14:09:38;9.60;99.90
10662;DHT22;5379;51.034;7.006;2024-01-27T14:12:06;9.40;99.90
10662;DHT22;5379;51.034;7.006;2024-01-27T14:14:33;9.40;99.90
10662;DHT22;5379;51.034;7.006;2024-01-27T14:17:01;9.40;99.90
10662;DHT22;5379;51.034;7.006;2024-01-27T14:19:28;9.40;99.90
10662;DHT22;5379;51.034;7.006;2024-01-27T14:21:56;9.40;99.90
10662;DHT22;5379;51.034;7.006;2024-01-27T14:24:23;9.40;99.90
10662;DHT22;5379;51.034;7.006;2024-01-27T14:26:51;9.50;99.90
10662;DHT22;5379;51.034;7.006;2024-01-27T14:29:18;9.50;99.90
10662;DHT22;5379;51.034;7.006;2024-01-27T14:31:45;9.50;99.90
10662;DHT22;5379;51.034;7.006;2024-01-27T14:34:12;9.50;99.90
10662;DHT22;5379;51.034;7.006;2024-01-27T14:36:39;9.40;99.90
10662;DHT22;5379;51.034;7.006;2024-01-27T14:39:07;9.50;99.90
10662;DHT22;5379;51.034;7.006;2024-01-27T14:41:36;9.40;99.90
10662;DHT22;5379;51.034;7.006;2024-01-27T14:44:03;9.60;99.90
10662;DHT22;5379;51.034;7.006;2024-01-27T14:46:30;9.50;99.90
10662;DHT22;5379;51.034;7.006;2024-01-27T14:48:56;9.50;99.90
10662;DHT22;5379;51.034;7.006;2024-01-27T14:51:23;9.50;99.90
10662;DHT22;5379;51.034;7.006;2024-01-27T14:53:50;9.50;99.90
10662;DHT22;5379;51.034;7.006;2024-01-27T14:56:18;9.60;99.90
10662;DHT22;5379;51.034;7.006;2024-01-27T14:58:45;9.70;99.90
10662;DHT22;5379;51.034;7.006;2024-01-27T15:01:16;9.70;99.90
10662;DHT22;5379;51.034;7.006;2024-01-27T15:03:43;9.70;99.90
10662;DHT22;5379;51.034;7.006;2024-01-27T15:06:10;9.60;99.90
10662;DHT22;5379;51.034;7.006;2024-01-27T15:08:37;9.50;99.90
10662;DHT22;5379;51.034;7.006;2024-01-27T15:11:04;9.40;99.90
10662;DHT22;5379;51.034;7.006;2024-01-27T15:13:32;9.40;99.90
10662;DHT22;5379;51.034;7.006;2024-01-27T15:15:59;9.40;99.90
10662;DHT22;5379;51.034;7.006;2024-01-27T15:18:25;9.40;99.90
10662;DHT22;5379;51.034;7.006;2024-01-27T15:20:52;9.50;99.90
10662;DHT22;5379;51.034;7.006;2024-01-27T15:23:19;9.40;99.90
10662;DHT22;5379;51.034;7.006;2024-01-27T15:25:50;9.50;99.90
10662;DHT22;5379;51.034;7.006;2024-01-27T15:28:17;9.50;99.90
10662;DHT22;5379;51.034;7.006;2024-01-27T15:30:45;9.40;99.90
10662;DHT22;5379;51.034;7.006;2024-01-27T15:33:14;9.50;99.90
10662;DHT22;5379;51.034;7.006;2024-01-27T15:35:41;9.50;99.90
10662;DHT22;5379;51.034;7.006;2024-01-27T15:38:08;9.60;99.90
10662;DHT22;5379;51.034;7.006;2024-01-27T15:40:35;9.60;99.90
10662;DHT22;5379;51.034;7.006;2024-01-27T15:43:01;9.40;99.90
10662;DHT22;5379;51.034;7.006;2024-01-27T15:45:28;9.20;99.90
10662;DHT22;5379;51.034;7.006;2024-01-27T15:47:56;9.30;99.90
10662;DHT22;5379;51.034;7.006;2024-01-27T15:50:25;9.30;99.90
10662;DHT22;5379;51.034;7.006;2024-01-27T15:52:53;9.30;99.90
10662;DHT22;5379;51.034;7.006;2024-01-27T15:55:20;9.30;99.90
10662;DHT22;5379;51.034;7.006;2024-01-27T15:57:47;9.20;99.90
10662;DHT22;5379;51.034;7.006;2024-01-27T16:00:14;9.20;99.90
10662;DHT22;5379;51.034;7.006;2024-01-27T16:02:42;9.10;99.90
10662;DHT22;5379;51.034;7.006;2024-01-27T16:05:10;9.10;99.90
10662;DHT22;5379;51.034;7.006;2024-01-27T16:07:37;9.00;99.90
10662;DHT22;5379;51.034;7.006;2024-01-27T16:10:04;8.80;99.90
10662;DHT22;5379;51.034;7.006;2024-01-27T16:12:33;8.80;99.90
10662;DHT22;5379;51.034;7.006;2024-01-27T16:15:00;8.80;99.90
10662;DHT22;5379;51.034;7.006;2024-01-27T16:17:27;8.90;99.90
10662;DHT22;5379;51.034;7.006;2024-01-27T16:19:53;9.00;99.90
10662;DHT22;5379;51.034;7.006;2024-01-27T16:22:22;9.00;99.90
10662;DHT22;5379;51.034;7.006;2024-01-27T16:24:49;9.10;99.90
10662;DHT22;5379;51.034;7.006;2024-01-27T16:27:17;8.10;99.90
10662;DHT22;5379;51.034;7.006;2024-01-27T16:29:46;9.20;99.90
10662;DHT22;5379;51.034;7.006;2024-01-27T16:32:12;9.00;99.90
10662;DHT22;5379;51.034;7.006;2024-01-27T16:34:42;8.90;99.90
10662;DHT22;5379;51.034;7.006;2024-01-27T16:37:09;8.90;99.90
10662;DHT22;5379;51.034;7.006;2024-01-27T16:39:37;8.90;99.90
10662;DHT22;5379;51.034;7.006;2024-01-27T16:42:04;8.80;99.90
10662;DHT22;5379;51.034;7.006;2024-01-27T16:44:31;8.60;99.90
10662;DHT22;5379;51.034;7.006;2024-01-27T16:46:58;8.30;99.90
10662;DHT22;5379;51.034;7.006;2024-01-27T16:49:25;8.30;99.90
10662;DHT22;5379;51.034;7.006;2024-01-27T16:51:52;7.80;99.90
10662;DHT22;5379;51.034;7.006;2024-01-27T16:54:18;7.80;99.90
10662;DHT22;5379;51.034;7.006;2024-01-27T16:56:47;7.70;99.90
10662;DHT22;5379;51.034;7.006;2024-01-27T16:59:14;7.70;99.90
10662;DHT22;5379;51.034;7.006;2024-01-27T17:01:41;7.50;99.90
10662;DHT22;5379;51.034;7.006;2024-01-27T17:04:08;7.50;99.90
10662;DHT22;5379;51.034;7.006;2024-01-27T17:06:39;7.70;99.90
10662;DHT22;5379;51.034;7.006;2024-01-27T17:09:06;7.90;99.90
10662;DHT22;5379;51.034;7.006;2024-01-27T17:11:33;7.90;99.90
10662;DHT22;5379;51.034;7.006;2024-01-27T17:14:01;8.00;99.90
10662;DHT22;5379;51.034;7.006;2024-01-27T17:16:28;7.90;99.90
10662;DHT22;5379;51.034;7.006;2024-01-27T17:18:55;7.90;99.90
10662;DHT22;5379;51.034;7.006;2024-01-27T17:21:21;7.90;99.90
10662;DHT22;5379;51.034;7.006;2024-01-27T17:23:48;7.80;99.90
10662;DHT22;5379;51.034;7.006;2024-01-27T17:26:15;7.70;99.90
10662;DHT22;5379;51.034;7.006;2024-01-27T17:28:43;7.40;99.90
10662;DHT22;5379;51.034;7.006;2024-01-27T17:31:12;7.50;99.90
10662;DHT22;5379;51.034;7.006;2024-01-27T17:33:39;7.40;99.90
10662;DHT22;5379;51.034;7.006;2024-01-27T17:36:06;7.40;99.90
10662;DHT22;5379;51.034;7.006;2024-01-27T17:38:34;7.30;99.90
10662;DHT22;5379;51.034;7.006;2024-01-27T17:41:01;7.30;99.90
10662;DHT22;5379;51.034;7.006;2024-01-27T17:43:28;7.20;99.90
10662;DHT22;5379;51.034;7.006;2024-01-27T17:45:55;7.20;99.90
10662;DHT22;5379;51.034;7.006;2024-01-27T17:48:23;7.10;99.90
10662;DHT22;5379;51.034;7.006;2024-01-27T17:50:50;7.10;99.90
10662;DHT22;5379;51.034;7.006;2024-01-27T17:53:17;7.20;99.90
10662;DHT22;5379;51.034;7.006;2024-01-27T17:55:44;7.10;99.90
10662;DHT22;5379;51.034;7.006;2024-01-27T17:58:10;7.30;99.90
10662;DHT22;5379;51.034;7.006;2024-01-27T18:00:38;7.30;99.90
10662;DHT22;5379;51.034;7.006;2024-01-27T18:03:05;7.20;99.90
10662;DHT22;5379;51.034;7.006;2024-01-27T18:05:33;7.20;99.90
10662;DHT22;5379;51.034;7.006;2024-01-27T18:08:00;6.90;99.90
10662;DHT22;5379;51.034;7.006;2024-01-27T18:10:28;6.80;99.90
10662;DHT22;5379;51.034;7.006;2024-01-27T18:12:55;6.70;99.90
10662;DHT22;5379;51.034;7.006;2024-01-27T18:15:22;6.70;99.90
10662;DHT22;5379;51.034;7.006;2024-01-27T18:20:19;6.70;99.90
10662;DHT22;5379;51.034;7.006;2024-01-27T18:22:47;6.50;99.90
10662;DHT22;5379;51.034;7.006;2024-01-27T18:25:14;6.60;99.90
10662;DHT22;5379;51.034;7.006;2024-01-27T18:27:41;6.60;99.90
10662;DHT22;5379;51.034;7.006;2024-01-27T18:30:09;6.60;99.90
10662;DHT22;5379;51.034;7.006;2024-01-27T18:32:37;6.70;99.90
10662;DHT22;5379;51.034;7.006;2024-01-27T18:35:06;6.70;99.90
10662;DHT22;5379;51.034;7.006;2024-01-27T18:37:34;6.80;99.90
10662;DHT22;5379;51.034;7.006;2024-01-27T18:40:03;6.70;99.90
10662;DHT22;5379;51.034;7.006;2024-01-27T18:42:30;6.60;99.90
10662;DHT22;5379;51.034;7.006;2024-01-27T18:49:55;6.50;99.90
10662;DHT22;5379;51.034;7.006;2024-01-27T18:52:22;6.40;99.90
10662;DHT22;5379;51.034;7.006;2024-01-27T18:54:50;6.80;99.90
10662;DHT22;5379;51.034;7.006;2024-01-27T18:57:19;6.30;99.90
10662;DHT22;5379;51.034;7.006;2024-01-27T18:59:46;6.40;99.90
10662;DHT22;5379;51.034;7.006;2024-01-27T19:04:43;6.20;99.90
10662;DHT22;5379;51.034;7.006;2024-01-27T19:07:09;6.20;99.90
10662;DHT22;5379;51.034;7.006;2024-01-27T19:09:37;6.20;99.90
10662;DHT22;5379;51.034;7.006;2024-01-27T19:12:04;6.10;99.90
10662;DHT22;5379;51.034;7.006;2024-01-27T19:14:36;6.00;99.90
10662;DHT22;5379;51.034;7.006;2024-01-27T19:17:03;5.90;99.90
10662;DHT22;5379;51.034;7.006;2024-01-27T19:21:59;5.90;99.90
10662;DHT22;5379;51.034;7.006;2024-01-27T19:24:26;5.80;99.90
10662;DHT22;5379;51.034;7.006;2024-01-27T19:26:53;5.80;99.90
10662;DHT22;5379;51.034;7.006;2024-01-27T19:29:20;5.80;99.90
10662;DHT22;5379;51.034;7.006;2024-01-27T19:31:48;5.90;99.90
10662;DHT22;5379;51.034;7.006;2024-01-27T19:34:15;6.00;99.90
10662;DHT22;5379;51.034;7.006;2024-01-27T19:36:42;6.10;99.90
10662;DHT22;5379;51.034;7.006;2024-01-27T19:39:09;6.10;99.90
10662;DHT22;5379;51.034;7.006;2024-01-27T19:41:36;6.30;99.90
10662;DHT22;5379;51.034;7.006;2024-01-27T19:44:03;6.50;99.90
10662;DHT22;5379;51.034;7.006;2024-01-27T19:46:30;6.30;99.90
10662;DHT22;5379;51.034;7.006;2024-01-27T19:48:59;6.20;99.90
10662;DHT22;5379;51.034;7.006;2024-01-27T19:51:26;6.00;99.90
10662;DHT22;5379;51.034;7.006;2024-01-27T19:53:53;5.80;99.90
10662;DHT22;5379;51.034;7.006;2024-01-27T19:58:47;5.70;99.90
10662;DHT22;5379;51.034;7.006;2024-01-27T20:01:15;5.60;99.90
10662;DHT22;5379;51.034;7.006;2024-01-27T20:03:42;5.60;99.90
10662;DHT22;5379;51.034;7.006;2024-01-27T20:06:12;5.50;99.90
10662;DHT22;5379;51.034;7.006;2024-01-27T20:08:41;5.40;99.90
10662;DHT22;5379;51.034;7.006;2024-01-27T20:11:08;5.40;99.90
10662;DHT22;5379;51.034;7.006;2024-01-27T20:13:36;5.30;99.90
10662;DHT22;5379;51.034;7.006;2024-01-27T20:16:04;5.20;99.90
10662;DHT22;5379;51.034;7.006;2024-01-27T20:18:33;5.10;99.90
10662;DHT22;5379;51.034;7.006;2024-01-27T20:21:00;5.10;99.90
10662;DHT22;5379;51.034;7.006;2024-01-27T20:23:28;5.10;99.90
10662;DHT22;5379;51.034;7.006;2024-01-27T20:25:56;5.10;99.90
10662;DHT22;5379;51.034;7.006;2024-01-27T20:28:22;6.40;99.90
10662;DHT22;5379;51.034;7.006;2024-01-27T20:30:51;5.00;99.90
10662;DHT22;5379;51.034;7.006;2024-01-27T20:33:18;5.20;99.90
10662;DHT22;5379;51.034;7.006;2024-01-27T20:35:47;5.10;99.90
10662;DHT22;5379;51.034;7.006;2024-01-27T20:38:14;5.20;99.90
10662;DHT22;5379;51.034;7.006;2024-01-27T20:40:42;5.30;99.90
10662;DHT22;5379;51.034;7.006;2024-01-27T20:43:10;5.50;99.90
10662;DHT22;5379;51.034;7.006;2024-01-27T20:45:37;5.20;99.90
10662;DHT22;5379;51.034;7.006;2024-01-27T20:48:04;5.00;99.90
10662;DHT22;5379;51.034;7.006;2024-01-27T20:52:59;5.00;99.90
10662;DHT22;5379;51.034;7.006;2024-01-27T20:55:27;4.80;99.90
10662;DHT22;5379;51.034;7.006;2024-01-27T20:57:55;5.00;99.90
10662;DHT22;5379;51.034;7.006;2024-01-27T21:00:22;4.90;99.90
10662;DHT22;5379;51.034;7.006;2024-01-27T21:02:50;4.80;99.90
10662;DHT22;5379;51.034;7.006;2024-01-27T21:05:18;4.80;99.90
10662;DHT22;5379;51.034;7.006;2024-01-27T21:07:45;4.80;99.90
10662;DHT22;5379;51.034;7.006;2024-01-27T21:12:40;4.80;99.90
10662;DHT22;5379;51.034;7.006;2024-01-27T21:15:09;6.70;99.90
10662;DHT22;5379;51.034;7.006;2024-01-27T21:17:37;4.80;99.90
10662;DHT22;5379;51.034;7.006;2024-01-27T21:20:05;4.70;99.90
10662;DHT22;5379;51.034;7.006;2024-01-27T21:22:35;4.80;99.90